• Join FlightAware (Why Join?)
  • Login
  • US Flag 
07:48PM EDT


 

Airport Tracker/Info


-or-


 

Live Flight TrackerFlight Track Log ✈ DAL1117 ✈ 11-Jul-2013 ✈ KMSP - KIND

Flight Track Log - Related Links

Times and Time Zones

All times are in EDT time to prevent confusion due to time zone crossing. See the DAL1117 flight status page for this flight to view local times or setup timezone preferences in your user account.

Time Position Orientation Groundspeed Altitude Reporting Facility
EDT Latitude Longitude Course Direction KTS MPH feet Rate Location/Type
02:18PM 44.8500 -93.2167 125° Southeast 181 208 2,100  Level Minneapolis TRACON
02:18PM 44.8258 -93.2006 155° Southeast 205 236 2,700 2,460 Climbing Minneapolis Center
02:20PM 44.7686 -93.1339 140° Southeast 258 297 6,000 3,240 Climbing Minneapolis Center
02:21PM 44.5239 -92.6823 137° Southeast  Level Estimated
02:21PM 44.6961 -93.0372 137° Southeast 298 343 9,500  Level Minneapolis Center
02:22PM 44.4340 -92.5485 120° Southeast  Level Estimated
02:22PM 44.6289 -92.9503 137° Southeast 334 384 11,400  Level Minneapolis Center
02:23PM 44.3328 -92.4322 125° Southeast  Level FlightAware Approximate
02:23PM 44.5508 -92.8469 137° Southeast 392 451 12,900  Level Minneapolis Center
02:24PM 44.4700 -92.7372 136° Southeast 405 466 15,300 2,100 Climbing Minneapolis Center
02:25PM 44.4069 -92.6019 123° Southeast 418 481 17,300 1,860 Climbing Minneapolis Center
02:26PM 44.3456 -92.4608 121° Southeast 423 487 19,200 1,680 Climbing Minneapolis Center
02:27PM 44.2689 -92.2836 121° Southeast 442 509 21,200 1,740 Climbing Minneapolis Center
02:28PM 44.1886 -92.0983 121° Southeast 462 532 23,300 1,560 Climbing Minneapolis Center
02:29PM 44.1167 -91.9442 123° Southeast 474 545 24,500 1,320 Climbing Minneapolis Center
02:30PM 44.0231 -91.8028 133° Southeast 490 564 26,100 1,680 Climbing Minneapolis Center
02:31PM 43.9278 -91.6622 133° Southeast 490 564 28,000 1,560 Climbing Minneapolis Center
02:32PM 43.8386 -91.5264 132° Southeast 482 555 29,400 1,200 Climbing Minneapolis Center
02:33PM 43.7472 -91.3914 133° Southeast 483 556 30,600 720 Climbing Minneapolis Center
02:34PM 43.6361 -91.2297 133° Southeast 486 559 31,000 180 Climbing Minneapolis Center
02:35PM 43.5447 -91.0944 133° Southeast 485 558 31,000  Level Minneapolis Center
02:36PM 43.4519 -90.9611 134° Southeast 484 557 31,000  Level Chicago Center
02:37PM 43.3431 -90.8008 133° Southeast 481 554 31,000  Level Chicago Center
02:38PM 43.2511 -90.6672 133° Southeast 483 556 31,000  Level Chicago Center
02:39PM 43.1583 -90.5331 133° Southeast 485 558 31,000  Level Chicago Center
02:41PM 43.0633 -90.3992 134° Southeast 491 565 31,000  Level Chicago Center
02:42PM 42.9703 -90.2681 134° Southeast 485 558 31,000  Level Chicago Center
02:43PM 42.8606 -90.1097 133° Southeast 485 558 31,000  Level Chicago Center
02:44PM 42.7664 -89.9786 134° Southeast 485 558 31,000  Level Chicago Center
02:45PM 42.6650 -89.8386 135° Southeast 487 560 31,000  Level Chicago Center
02:46PM 42.5697 -89.7056 134° Southeast 491 565 31,000  Level Chicago Center
02:47PM 42.4739 -89.5728 134° Southeast 493 567 31,000  Level Chicago Center
02:48PM 42.3775 -89.4417 135° Southeast 492 566 31,000  Level Chicago Center
02:49PM 42.2658 -89.2875 134° Southeast 492 566 31,000  Level Chicago Center
02:50PM 42.1719 -89.1597 135° Southeast 483 556 31,000  Level Chicago Center
02:51PM 42.0758 -89.0283 135° Southeast 490 564 31,000  Level Chicago Center
02:52PM 41.9808 -88.8992 135° Southeast 491 565 31,000  Level Chicago Center
02:53PM 41.8839 -88.7694 135° Southeast 494 568 31,000  Level Chicago Center
02:54PM 41.7875 -88.6397 135° Southeast 495 570 31,000  Level Chicago Center
02:55PM 41.6719 -88.4856 135° Southeast 495 570 31,000 -540 Level Chicago Center
02:56PM 41.5767 -88.3586 135° Southeast 490 564 29,900 -1,020 Descending Chicago Center
02:57PM 41.4661 -88.2547 145° Southeast 494 568 29,000 -480 Descending Chicago Center
02:58PM 41.3286 -88.1469 150° Southeast 496 571 29,000  Level Chicago Center
02:59PM 41.2133 -88.0542 149° Southeast 499 574 29,000  Level Chicago Center
03:00PM 41.0961 -87.9597 149° Southeast 499 574 29,000  Level Chicago Center
03:01PM 40.9933 -87.8383 138° Southeast 504 580 29,000 -120 Level Chicago Center
03:02PM 40.8914 -87.7158 138° Southeast 499 574 28,800 -1,860 Descending Chicago Center
03:03PM 40.7689 -87.5714 138° Southeast 498 573 25,200 -3,000 Descending Chicago Center
03:04PM 40.6683 -87.4542 138° Southeast 488 562 22,700 -2,400 Descending Chicago Center
03:05PM 40.5586 -87.3636 148° Southeast 474 545 20,300 -2,460 Descending Chicago Center
03:06PM 40.4414 -87.2844 153° Southeast 455 524 17,700 -2,220 Descending Chicago Center
03:07PM 40.3356 -87.2042 150° Southeast 439 505 15,800 -2,040 Descending Chicago Center
03:08PM 40.2656 -87.0867 128° Southeast 409 471 13,500 -1,380 Descending Chicago Center
03:09PM 40.1956 -86.9381 122° Southeast 402 463 13,000 -300 Descending Chicago Center
03:11PM 40.1306 -86.8217 126° Southeast 401 461 13,000 -360 Level Chicago Center
03:12PM 40.0578 -86.7192 133° Southeast 390 449 12,300 -840 Descending Chicago Center
03:13PM 39.9906 -86.6303 135° Southeast 353 406 11,300 -1,140 Descending Chicago Center
03:14PM 39.9286 -86.5492 135° Southeast 323 372 10,000 -960 Descending Chicago Center
03:15PM 39.8700 -86.4719 135° Southeast 307 353 9,300 -1,200 Descending Chicago Center
03:16PM 39.7900 -86.4111 150° Southeast 304 350 7,600 -1,440 Descending Chicago Center
03:17PM 39.7258 -86.4464 203° Southwest 275 316 6,400 -1,200 Descending Chicago Center